createdAt,value
2023-04-18T05:03:09.273Z,40.20
2023-04-18T05:04:10.022Z,39.20
2023-04-18T05:05:09.994Z,39.03
2023-04-18T05:06:08.992Z,38.89
2023-04-18T05:07:10.017Z,38.85
2023-04-18T05:08:10.022Z,38.80
2023-04-18T05:09:09.068Z,38.77
2023-04-18T05:10:10.140Z,38.83
2023-04-18T05:11:09.174Z,38.81
2023-04-18T05:12:09.182Z,38.79
2023-04-18T05:13:09.231Z,38.76
2023-04-18T05:14:10.216Z,38.70
2023-04-18T05:15:10.250Z,38.67
2023-04-18T05:16:10.274Z,38.66
2023-04-18T05:17:09.252Z,38.73
2023-04-18T05:18:10.281Z,38.72
2023-04-18T05:19:10.240Z,38.71
2023-04-18T05:20:10.290Z,38.69
2023-04-18T05:21:10.285Z,38.66
2023-04-18T05:22:09.288Z,38.68
2023-04-18T05:23:09.304Z,38.51
2023-04-18T05:24:10.284Z,38.53
2023-04-18T05:25:09.313Z,38.53
2023-04-18T05:26:09.324Z,38.59
2023-04-18T05:27:10.321Z,38.62
2023-04-18T05:28:10.340Z,38.63
2023-04-18T05:29:10.355Z,38.59
2023-04-18T05:30:10.349Z,38.63
2023-04-18T05:31:10.472Z,38.61
2023-04-18T05:32:10.358Z,38.64
2023-04-18T05:33:10.362Z,38.64
2023-04-18T05:34:09.387Z,38.61
2023-04-18T05:35:09.358Z,38.61
2023-04-18T05:36:10.367Z,38.59
2023-04-18T05:37:09.350Z,38.56
2023-04-18T05:38:10.357Z,38.59
2023-04-18T05:39:09.383Z,38.54
2023-04-18T05:40:10.389Z,38.59
2023-04-18T05:41:10.390Z,38.51
2023-04-18T05:42:09.413Z,38.54
2023-04-18T05:43:10.413Z,38.54
2023-04-18T05:44:10.428Z,38.49
2023-04-18T05:45:09.424Z,38.48
2023-04-18T05:46:10.523Z,38.58
2023-04-18T05:47:10.491Z,38.58
2023-04-18T05:48:09.633Z,38.53
2023-04-18T05:49:10.539Z,38.54
2023-04-18T05:50:10.586Z,38.53
2023-04-18T05:51:11.087Z,38.53
2023-04-18T05:52:10.574Z,38.55
2023-04-18T05:53:09.569Z,38.50
2023-04-18T05:54:09.575Z,38.58
2023-04-18T05:55:09.613Z,38.54
2023-04-18T05:56:09.555Z,38.52
2023-04-18T05:57:10.575Z,38.50
2023-04-18T05:58:09.569Z,38.51
2023-04-18T05:59:09.588Z,38.46
2023-04-18T06:00:10.609Z,38.52
2023-04-18T06:01:10.594Z,38.47
2023-04-18T06:02:10.786Z,38.53
2023-04-18T06:03:11.285Z,38.51
2023-04-18T06:04:10.741Z,38.52
2023-04-18T06:05:10.919Z,38.43
2023-04-18T06:06:10.758Z,38.39
2023-04-18T06:07:09.646Z,38.46
2023-04-18T06:08:10.651Z,38.44
2023-04-18T06:09:10.681Z,38.44
2023-04-18T06:10:10.700Z,38.44
2023-04-18T06:11:10.704Z,38.38
2023-04-18T06:12:10.689Z,38.40
2023-04-18T06:13:09.666Z,38.40
2023-04-18T06:14:10.714Z,38.35
2023-04-18T06:15:10.728Z,38.36
2023-04-18T06:16:09.753Z,38.38
2023-04-18T06:17:10.732Z,38.38
2023-04-18T06:18:10.772Z,38.38
2023-04-18T06:19:10.754Z,38.32
2023-04-18T06:20:10.797Z,38.36
2023-04-18T06:21:10.794Z,38.37
2023-04-18T06:22:10.848Z,38.41
2023-04-18T06:23:09.853Z,38.42
2023-04-18T06:24:10.843Z,38.45
2023-04-18T06:25:10.863Z,38.40
2023-04-18T06:26:10.856Z,38.43
2023-04-18T06:27:20.716Z,38.41
2023-04-18T06:28:10.869Z,38.43
2023-04-18T06:29:10.844Z,38.40
2023-04-18T06:30:10.841Z,38.41
2023-04-18T06:31:10.854Z,38.38
2023-04-18T06:32:09.858Z,38.39
2023-04-18T06:33:10.835Z,38.35
2023-04-18T06:34:10.892Z,38.37
2023-04-18T06:35:09.823Z,38.37
2023-04-18T06:36:10.817Z,38.37
2023-04-18T06:37:10.809Z,38.36
2023-04-18T06:38:09.895Z,38.40
2023-04-18T06:39:10.786Z,38.46
2023-04-18T06:40:10.773Z,38.47
2023-04-18T06:41:09.784Z,38.51
2023-04-18T06:42:10.769Z,38.56
2023-04-18T06:43:09.838Z,38.55
2023-04-18T06:44:10.746Z,38.53
2023-04-18T06:45:10.749Z,38.53
2023-04-18T06:46:09.785Z,38.56
2023-04-18T06:47:10.725Z,38.55
2023-04-18T06:48:10.866Z,38.59
2023-04-18T06:49:10.708Z,38.59
2023-04-18T06:50:10.702Z,38.61
2023-04-18T06:51:10.700Z,38.62
2023-04-18T06:52:10.687Z,38.63
2023-04-18T06:53:10.684Z,38.64
2023-04-18T06:54:09.690Z,38.67
2023-04-18T06:55:09.663Z,38.65
2023-04-18T06:56:11.111Z,38.64
2023-04-18T06:57:10.655Z,38.69
2023-04-18T06:58:10.650Z,38.69
2023-04-18T06:59:10.725Z,38.71
2023-04-18T07:00:10.625Z,38.69
2023-04-18T07:01:10.767Z,38.64
2023-04-18T07:02:10.679Z,38.65
2023-04-18T07:03:11.138Z,38.62
2023-04-18T07:04:10.907Z,38.62
2023-04-18T07:05:09.602Z,38.61
2023-04-18T07:06:09.598Z,38.59
2023-04-18T07:07:09.593Z,38.62
2023-04-18T07:08:09.600Z,38.60
2023-04-18T07:09:11.578Z,38.60
2023-04-18T07:10:10.607Z,38.61
2023-04-18T07:11:10.570Z,38.63
2023-04-18T07:12:10.553Z,38.61
2023-04-18T07:13:09.554Z,38.61
2023-04-18T07:14:09.528Z,38.62
2023-04-18T07:15:09.544Z,38.64
2023-04-18T07:16:10.575Z,38.62
2023-04-18T07:17:10.588Z,38.67
2023-04-18T07:18:10.534Z,38.65
2023-04-18T07:19:10.511Z,38.62
2023-04-18T07:20:09.504Z,38.64
2023-04-18T07:21:09.499Z,38.65
2023-04-18T07:22:10.479Z,38.65
2023-04-18T07:23:10.506Z,38.66
2023-04-18T07:24:09.475Z,38.64
2023-04-18T07:25:10.464Z,38.64
2023-04-18T07:26:10.564Z,38.65
2023-04-18T07:27:10.451Z,38.65
2023-04-18T07:28:10.490Z,38.65
2023-04-18T07:29:10.463Z,38.65
2023-04-18T07:30:10.420Z,38.66
2023-04-18T07:31:09.461Z,38.67
2023-04-18T07:32:09.408Z,38.68
2023-04-18T07:33:09.393Z,38.69
2023-04-18T07:34:09.392Z,38.69
2023-04-18T07:35:09.385Z,38.71
2023-04-18T07:36:10.396Z,38.71
2023-04-18T07:37:10.721Z,38.68
2023-04-18T07:38:10.391Z,38.70
2023-04-18T07:39:10.390Z,38.70
2023-04-18T07:40:10.349Z,38.70
2023-04-18T07:41:10.349Z,38.69
2023-04-18T07:42:10.370Z,38.72
2023-04-18T07:43:10.328Z,38.70
2023-04-18T07:44:10.376Z,38.69
2023-04-18T07:45:10.324Z,38.70
2023-04-18T07:46:09.329Z,38.71
2023-04-18T07:47:10.464Z,38.72
2023-04-18T07:48:10.368Z,38.72
2023-04-18T07:49:10.357Z,38.72
2023-04-18T07:50:09.392Z,38.71
2023-04-18T07:51:09.618Z,38.75
2023-04-18T07:52:09.373Z,38.89
2023-04-18T07:53:09.381Z,38.87
2023-04-18T07:54:10.393Z,38.87
2023-04-18T07:55:09.402Z,38.88
2023-04-18T07:56:10.428Z,39.26
2023-04-18T07:57:10.413Z,39.14
2023-04-18T07:58:10.724Z,39.23
2023-04-18T07:59:10.491Z,39.06
2023-04-18T08:00:10.560Z,39.12
2023-04-18T08:01:10.600Z,39.30
2023-04-18T08:02:09.712Z,39.31
2023-04-18T08:03:10.938Z,39.47
2023-04-18T08:04:10.870Z,39.67
2023-04-18T08:05:09.971Z,39.63
2023-04-18T08:06:10.930Z,39.74
2023-04-18T08:07:10.910Z,39.48
2023-04-18T08:08:10.930Z,39.47
2023-04-18T08:09:10.977Z,39.73
2023-04-18T08:10:10.987Z,39.67
2023-04-18T08:11:11.030Z,39.99
2023-04-18T08:12:11.083Z,39.95
2023-04-18T08:13:11.106Z,40.29
2023-04-18T08:14:11.187Z,40.13
2023-04-18T08:15:11.195Z,40.60
2023-04-18T08:16:11.299Z,40.06
2023-04-18T08:17:11.253Z,40.06
2023-04-18T08:18:10.311Z,40.12
2023-04-18T08:19:11.521Z,40.30
2023-04-18T08:20:10.350Z,40.01
2023-04-18T08:21:11.359Z,40.06
2023-04-18T08:22:10.364Z,40.28
2023-04-18T08:23:12.831Z,40.08
2023-04-18T08:24:11.358Z,39.88
2023-04-18T08:25:10.373Z,39.90
2023-04-18T08:26:11.375Z,40.06
2023-04-18T08:27:11.348Z,39.95
2023-04-18T08:28:11.335Z,39.95
2023-04-18T08:29:11.548Z,39.93
2023-04-18T08:30:10.442Z,40.06
2023-04-18T08:31:10.351Z,39.96
2023-04-18T08:32:10.379Z,40.22
2023-04-18T08:33:11.311Z,39.90
2023-04-18T08:34:11.288Z,39.98
2023-04-18T08:35:11.287Z,40.14
2023-04-18T08:36:11.279Z,40.11
2023-04-18T08:37:11.283Z,40.15
2023-04-18T08:38:11.279Z,40.29
2023-04-18T08:39:11.503Z,40.56
2023-04-18T08:40:11.282Z,40.22
2023-04-18T08:41:10.602Z,40.44
2023-04-18T08:42:10.252Z,40.28
2023-04-18T08:43:11.230Z,40.15
2023-04-18T08:44:11.274Z,40.12
2023-04-18T08:45:11.204Z,40.05
2023-04-18T08:46:11.274Z,40.10
2023-04-18T08:47:10.212Z,40.17
2023-04-18T08:48:11.188Z,40.05
2023-04-18T08:49:12.115Z,40.12
2023-04-18T08:50:11.259Z,40.08
2023-04-18T08:51:10.175Z,40.02
2023-04-18T08:52:11.246Z,40.02
2023-04-18T08:53:11.149Z,39.96
2023-04-18T08:54:10.258Z,39.90
2023-04-18T08:55:11.142Z,39.94
2023-04-18T08:56:11.134Z,39.94
2023-04-18T08:57:10.129Z,40.23
2023-04-18T08:58:10.134Z,40.29
2023-04-18T08:59:10.098Z,40.13
2023-04-18T09:00:10.144Z,40.10
2023-04-18T09:01:10.150Z,40.11
2023-04-18T09:02:11.207Z,40.30
2023-04-18T09:03:11.148Z,40.17
2023-04-18T09:04:10.124Z,40.28
2023-04-18T09:05:11.069Z,40.27
2023-04-18T09:06:11.086Z,40.36
2023-04-18T09:07:10.061Z,40.68
2023-04-18T09:08:11.042Z,40.50
2023-04-18T09:09:11.209Z,40.57
2023-04-18T09:10:10.034Z,40.48
2023-04-18T09:11:11.013Z,40.53
2023-04-18T09:12:11.027Z,40.37
2023-04-18T09:13:10.025Z,40.38
2023-04-18T09:14:10.004Z,40.33
2023-04-18T09:15:11.023Z,40.64
2023-04-18T09:16:10.006Z,40.37
2023-04-18T09:17:09.985Z,40.41
2023-04-18T09:18:10.077Z,40.28
2023-04-18T09:19:11.191Z,40.34
2023-04-18T09:20:09.975Z,40.30
2023-04-18T09:21:10.964Z,40.31
2023-04-18T09:22:09.961Z,40.24
2023-04-18T09:23:11.334Z,40.28
2023-04-18T09:24:11.265Z,40.37
2023-04-18T09:25:10.946Z,40.30
2023-04-18T09:26:10.922Z,40.36
2023-04-18T09:27:09.941Z,40.65
2023-04-18T09:28:10.964Z,40.77
2023-04-18T09:29:11.044Z,40.74
2023-04-18T09:30:10.028Z,40.66
2023-04-18T09:31:10.127Z,40.99
2023-04-18T09:32:10.094Z,40.87
2023-04-18T09:33:11.115Z,40.69
2023-04-18T09:34:11.396Z,40.72
2023-04-18T09:35:10.192Z,40.87
2023-04-18T09:36:10.260Z,40.86
2023-04-18T09:37:10.399Z,40.87
2023-04-18T09:38:11.324Z,40.95
2023-04-18T09:39:11.358Z,41.09
2023-04-18T09:40:11.364Z,41.29
2023-04-18T09:41:11.379Z,41.40
2023-04-18T09:42:10.377Z,41.16
2023-04-18T09:43:10.387Z,41.15
2023-04-18T09:44:14.402Z,41.11
2023-04-18T09:45:11.433Z,40.98
2023-04-18T09:46:11.516Z,40.81
2023-04-18T09:47:11.627Z,40.57
2023-04-18T09:48:10.431Z,40.52
2023-04-18T09:49:11.084Z,40.43
2023-04-18T09:50:10.441Z,40.63
2023-04-18T09:51:11.396Z,40.52
2023-04-18T09:52:10.633Z,40.49
2023-04-18T09:53:10.367Z,40.22
2023-04-18T09:54:11.513Z,40.23
2023-04-18T09:55:10.388Z,40.24
2023-04-18T09:56:11.364Z,40.11
2023-04-18T09:57:11.337Z,39.99
2023-04-18T09:58:10.356Z,39.99
2023-04-18T09:59:11.376Z,40.02
2023-04-18T10:00:10.612Z,39.98
2023-04-18T10:01:11.344Z,39.98
2023-04-18T10:02:10.340Z,39.97
2023-04-18T10:03:11.419Z,39.96
2023-04-18T10:04:10.326Z,39.96
2023-04-18T10:05:11.335Z,39.98
2023-04-18T10:06:11.310Z,39.96
2023-04-18T10:07:10.262Z,39.93
2023-04-18T10:08:10.264Z,39.93
2023-04-18T10:09:11.289Z,39.92
2023-04-18T10:10:11.252Z,39.92
2023-04-18T10:11:11.298Z,39.88
2023-04-18T10:12:11.254Z,39.87
2023-04-18T10:13:11.245Z,39.85
2023-04-18T10:14:11.235Z,39.83
2023-04-18T10:15:11.222Z,39.82
2023-04-18T10:16:11.317Z,39.83
2023-04-18T10:17:11.198Z,39.78
2023-04-18T10:18:11.269Z,39.77
2023-04-18T10:19:10.175Z,39.76
2023-04-18T10:20:10.233Z,39.76
2023-04-18T10:21:10.177Z,39.73
2023-04-18T10:22:10.176Z,39.72
2023-04-18T10:23:10.154Z,39.71
2023-04-18T10:24:10.158Z,39.70
2023-04-18T10:25:10.144Z,39.73
2023-04-18T10:26:11.170Z,39.73
2023-04-18T10:27:11.155Z,39.74
2023-04-18T10:28:11.175Z,39.73
2023-04-18T10:29:11.251Z,39.70
2023-04-18T10:30:10.212Z,39.73
2023-04-18T10:31:11.307Z,39.70
2023-04-18T10:32:11.249Z,39.72
2023-04-18T10:33:18.492Z,39.76
2023-04-18T10:34:11.254Z,39.82
2023-04-18T10:35:10.235Z,39.79
2023-04-18T10:36:11.232Z,39.82
2023-04-18T10:37:11.233Z,39.83
2023-04-18T10:38:11.252Z,39.82
2023-04-18T10:39:11.213Z,39.83
2023-04-18T10:40:11.248Z,39.83
2023-04-18T10:41:11.196Z,39.81
2023-04-18T10:42:11.663Z,39.87
2023-04-18T10:43:10.190Z,39.89
2023-04-18T10:44:11.177Z,39.88
2023-04-18T10:45:11.176Z,39.89
2023-04-18T10:46:24.017Z,39.85
2023-04-18T10:47:11.696Z,39.86
2023-04-18T10:48:11.188Z,39.87
2023-04-18T10:49:11.283Z,39.89
2023-04-18T10:50:10.146Z,39.82
2023-04-18T10:51:11.132Z,39.86
2023-04-18T10:52:11.740Z,39.84
2023-04-18T10:53:11.115Z,39.91
2023-04-18T10:54:10.141Z,39.93
2023-04-18T10:55:11.108Z,39.92
2023-04-18T10:56:11.099Z,39.91
2023-04-18T10:57:10.089Z,39.91
2023-04-18T10:58:11.078Z,39.90
2023-04-18T10:59:10.068Z,39.87
2023-04-18T11:00:11.094Z,39.91
2023-04-18T11:01:11.185Z,39.85
2023-04-18T11:02:11.093Z,39.87
2023-04-18T11:03:11.198Z,39.85
2023-04-18T11:04:11.250Z,39.75
2023-04-18T11:05:11.028Z,39.75
2023-04-18T11:06:10.023Z,39.71
2023-04-18T11:07:11.024Z,39.70
2023-04-18T11:08:10.007Z,39.73
2023-04-18T11:09:11.031Z,39.69
2023-04-18T11:10:11.043Z,39.70
2023-04-18T11:11:10.988Z,39.58
2023-04-18T11:12:09.992Z,39.62
2023-04-18T11:13:09.982Z,39.60
2023-04-18T11:14:10.977Z,39.38
2023-04-18T11:15:09.967Z,39.38
2023-04-18T11:16:11.007Z,39.34
2023-04-18T11:17:10.952Z,39.37
2023-04-18T11:18:11.021Z,39.36
2023-04-18T11:19:10.934Z,39.31
2023-04-18T11:20:09.928Z,39.29
2023-04-18T11:21:10.930Z,39.23
2023-04-18T11:22:10.919Z,39.25
2023-04-18T11:23:09.915Z,39.18
2023-04-18T11:24:10.923Z,39.12
2023-04-18T11:25:10.895Z,39.11
2023-04-18T11:26:09.938Z,39.03
2023-04-18T11:27:09.888Z,38.91
2023-04-18T11:28:10.878Z,38.90
2023-04-18T11:29:10.863Z,38.78
2023-04-18T11:30:10.852Z,38.79
2023-04-18T11:31:09.860Z,38.77
2023-04-18T11:32:09.910Z,38.76
2023-04-18T11:33:10.905Z,38.74
2023-04-18T11:34:10.856Z,38.67
2023-04-18T11:35:10.831Z,38.68
2023-04-18T11:36:09.826Z,38.63
2023-04-18T11:37:11.187Z,38.59
2023-04-18T11:38:10.814Z,38.52
2023-04-18T11:39:10.825Z,38.55
2023-04-18T11:40:09.798Z,38.52
2023-04-18T11:41:10.778Z,38.48
2023-04-18T11:42:11.242Z,38.47
2023-04-18T11:43:09.804Z,38.47
2023-04-18T11:44:09.843Z,38.39
2023-04-18T11:45:10.855Z,38.39
2023-04-18T11:46:10.894Z,38.40
2023-04-18T11:47:09.911Z,38.39
2023-04-18T11:48:10.026Z,38.39
2023-04-18T11:49:10.997Z,38.34
2023-04-18T11:50:11.027Z,38.36
2023-04-18T11:51:11.056Z,38.28
2023-04-18T11:52:10.099Z,38.20
2023-04-18T11:53:11.129Z,38.13
2023-04-18T11:54:10.163Z,38.14
2023-04-18T11:55:10.204Z,38.12
2023-04-18T11:56:10.250Z,38.04
2023-04-18T11:57:11.324Z,38.02
2023-04-18T11:58:10.374Z,38.00
2023-04-18T11:59:11.387Z,37.95
2023-04-18T12:00:10.509Z,37.87
2023-04-18T12:01:10.471Z,37.81
2023-04-18T12:02:16.738Z,37.78
2023-04-18T12:03:13.855Z,37.76
2023-04-18T12:04:11.769Z,37.70
2023-04-18T12:05:11.990Z,37.71
2023-04-18T12:06:11.580Z,37.68
2023-04-18T12:07:10.484Z,37.63
2023-04-18T12:08:11.556Z,37.60
2023-04-18T12:09:11.477Z,37.54
2023-04-18T12:10:11.460Z,37.53
2023-04-18T12:11:10.453Z,37.47
2023-04-18T12:12:11.463Z,37.47
2023-04-18T12:13:11.440Z,37.40
2023-04-18T12:14:11.555Z,37.39
2023-04-18T12:15:10.421Z,37.37
2023-04-18T12:16:10.503Z,37.36
2023-04-18T12:17:11.419Z,37.32
2023-04-18T12:18:11.404Z,37.29
2023-04-18T12:19:11.402Z,37.26
2023-04-18T12:20:11.395Z,37.27
2023-04-18T12:21:10.383Z,37.22
2023-04-18T12:22:11.420Z,37.14
2023-04-18T12:23:11.464Z,37.19
2023-04-18T12:24:11.665Z,37.10
2023-04-18T12:25:11.561Z,37.04
2023-04-18T12:26:10.619Z,37.00
2023-04-18T12:27:10.662Z,36.98
2023-04-18T12:28:11.909Z,36.93
2023-04-18T12:29:11.894Z,36.90
2023-04-18T12:30:11.872Z,36.94
2023-04-18T12:31:11.935Z,36.97
2023-04-18T12:32:11.918Z,36.97
2023-04-18T12:33:10.961Z,37.15
2023-04-18T12:34:11.105Z,37.38
2023-04-18T12:35:12.045Z,37.47
2023-04-18T12:36:12.100Z,37.50
2023-04-18T12:37:11.110Z,37.69
2023-04-18T12:38:12.155Z,37.73
2023-04-18T12:39:11.163Z,37.92
2023-04-18T12:40:12.236Z,37.84
2023-04-18T12:41:12.213Z,38.12
2023-04-18T12:42:12.246Z,38.39
2023-04-18T12:43:12.266Z,38.52
2023-04-18T12:44:11.330Z,39.05
2023-04-18T12:45:12.292Z,39.35
2023-04-18T12:46:12.398Z,38.69
2023-04-18T12:47:12.321Z,38.66
2023-04-18T12:48:11.298Z,38.58
2023-04-18T12:49:12.290Z,38.45
2023-04-18T12:50:12.288Z,38.43
2023-04-18T12:51:12.309Z,38.43
2023-04-18T12:52:12.321Z,38.46
2023-04-18T12:53:12.315Z,38.52
2023-04-18T12:54:11.591Z,38.27
2023-04-18T12:55:11.371Z,38.04
2023-04-18T12:56:12.405Z,38.06
2023-04-18T12:57:11.443Z,38.06
2023-04-18T12:58:11.472Z,38.06
2023-04-18T12:59:12.770Z,38.16
2023-04-18T13:00:12.575Z,38.28
2023-04-18T13:01:11.627Z,38.17
2023-04-18T13:02:12.797Z,38.19
2023-04-18T13:03:13.415Z,38.51
2023-04-18T13:04:13.247Z,38.10
2023-04-18T13:05:11.732Z,38.12
2023-04-18T13:06:12.747Z,38.21
2023-04-18T13:07:12.759Z,38.32
2023-04-18T13:08:16.934Z,38.37
2023-04-18T13:09:12.883Z,38.49
2023-04-18T13:10:11.914Z,38.50
2023-04-18T13:11:12.771Z,38.25
2023-04-18T13:12:12.801Z,38.29
2023-04-18T13:13:11.792Z,38.12
2023-04-18T13:14:13.081Z,38.53
2023-04-18T13:15:12.739Z,38.41
2023-04-18T13:16:11.772Z,38.46
2023-04-18T13:17:12.721Z,38.46
2023-04-18T13:18:12.813Z,38.30
2023-04-18T13:19:13.007Z,38.26
2023-04-18T13:20:11.749Z,37.95
2023-04-18T13:21:12.707Z,38.01
2023-04-18T13:22:11.693Z,38.33
2023-04-18T13:23:12.709Z,38.35
2023-04-18T13:24:11.690Z,38.44
2023-04-18T13:25:12.685Z,38.43
2023-04-18T13:26:11.675Z,38.50
2023-04-18T13:27:11.672Z,38.53
2023-04-18T13:28:11.653Z,38.60
2023-04-18T13:29:12.855Z,38.60
2023-04-18T13:30:11.691Z,38.55
2023-04-18T13:31:13.269Z,38.49
2023-04-18T13:32:12.685Z,38.50
2023-04-18T13:33:11.747Z,38.50
2023-04-18T13:34:12.664Z,38.53
2023-04-18T13:35:11.620Z,38.52
2023-04-18T13:36:12.628Z,38.61
2023-04-18T13:37:11.638Z,38.59
2023-04-18T13:38:12.650Z,38.46
2023-04-18T13:39:12.947Z,38.42
2023-04-18T13:40:12.665Z,38.48
2023-04-18T13:41:13.270Z,38.47
2023-04-18T13:42:12.685Z,38.47
2023-04-18T13:43:11.701Z,38.47
2023-04-18T13:44:12.710Z,38.62
2023-04-18T13:45:12.717Z,38.64
2023-04-18T13:46:12.774Z,38.73
2023-04-18T13:47:12.748Z,38.74
2023-04-18T13:48:12.937Z,38.71
2023-04-18T13:49:12.034Z,38.78
2023-04-18T13:50:12.051Z,38.73
2023-04-18T13:51:12.926Z,38.71
2023-04-18T13:52:11.965Z,38.73
2023-04-18T13:53:11.951Z,38.67
2023-04-18T13:54:12.976Z,38.63
2023-04-18T13:55:12.991Z,38.65
2023-04-18T13:56:13.026Z,38.48
2023-04-18T13:57:12.057Z,38.54
2023-04-18T13:58:13.089Z,38.60
2023-04-18T13:59:13.263Z,38.67
2023-04-18T14:00:12.135Z,38.65
2023-04-18T14:01:12.224Z,38.56
2023-04-18T14:02:12.401Z,38.41
2023-04-18T14:03:12.315Z,38.46
2023-04-18T14:04:13.426Z,38.50
2023-04-18T14:05:13.377Z,38.66
2023-04-18T14:06:13.343Z,38.69
2023-04-18T14:07:13.277Z,38.72
2023-04-18T14:08:13.284Z,38.60
2023-04-18T14:09:13.599Z,38.70
2023-04-18T14:10:12.302Z,38.80
2023-04-18T14:11:13.317Z,38.92
2023-04-18T14:12:13.328Z,39.01
2023-04-18T14:13:12.352Z,38.94
2023-04-18T14:14:12.383Z,38.83
2023-04-18T14:15:13.412Z,38.55
2023-04-18T14:16:13.540Z,38.57
2023-04-18T14:17:13.514Z,38.60
2023-04-18T14:18:13.547Z,38.72
2023-04-18T14:19:12.837Z,38.77
2023-04-18T14:20:12.613Z,38.82
2023-04-18T14:21:13.633Z,38.85
2023-04-18T14:22:13.686Z,38.91
2023-04-18T14:23:12.717Z,38.51
2023-04-18T14:24:12.736Z,38.56
2023-04-18T14:25:12.783Z,38.55
2023-04-18T14:26:12.834Z,38.52
2023-04-18T14:27:13.866Z,38.50
2023-04-18T14:28:13.890Z,38.59
2023-04-18T14:29:14.196Z,38.68
2023-04-18T14:30:13.976Z,38.71
2023-04-18T14:31:14.072Z,38.70
2023-04-18T14:32:13.023Z,38.78
2023-04-18T14:33:14.082Z,38.69
2023-04-18T14:34:13.116Z,38.63
2023-04-18T14:35:13.164Z,38.45
2023-04-18T14:36:13.207Z,38.23
2023-04-18T14:37:14.200Z,38.14
2023-04-18T14:38:13.359Z,37.96
2023-04-18T14:39:14.612Z,38.00
2023-04-18T14:40:13.419Z,37.91
2023-04-18T14:41:13.472Z,37.78
2023-04-18T14:42:13.510Z,37.74
2023-04-18T14:43:14.590Z,37.87
2023-04-18T14:44:14.642Z,37.81
2023-04-18T14:45:14.694Z,37.76
2023-04-18T14:46:13.896Z,37.83
2023-04-18T14:47:13.783Z,37.82
2023-04-18T14:48:14.898Z,37.86
2023-04-18T14:49:14.066Z,37.93
2023-04-18T14:50:13.999Z,37.97
2023-04-18T14:51:15.035Z,38.06
2023-04-18T14:52:14.090Z,38.05
2023-04-18T14:53:15.198Z,37.89
2023-04-18T14:54:14.189Z,37.83
2023-04-18T14:55:14.256Z,37.86
2023-04-18T14:56:15.351Z,37.62
2023-04-18T14:57:14.397Z,37.53
2023-04-18T14:58:15.550Z,37.52
2023-04-18T14:59:16.685Z,37.51
2023-04-18T15:00:15.634Z,37.45
2023-04-18T15:01:15.635Z,37.32
2023-04-18T15:02:14.985Z,37.15
2023-04-18T15:03:14.924Z,37.26
2023-04-18T15:04:15.400Z,37.09
2023-04-18T15:05:15.975Z,37.05
2023-04-18T15:06:15.929Z,36.96
2023-04-18T15:07:15.984Z,36.96
2023-04-18T15:08:15.058Z,36.83
2023-04-18T15:09:15.244Z,36.66
2023-04-18T15:10:16.190Z,36.74
2023-04-18T15:11:16.242Z,36.67
2023-04-18T15:12:15.298Z,36.68
2023-04-18T15:13:16.369Z,36.58
2023-04-18T15:14:15.797Z,36.49
2023-04-18T15:15:15.481Z,36.42
2023-04-18T15:16:15.585Z,36.33
2023-04-18T15:17:15.589Z,36.27
2023-04-18T15:18:16.612Z,36.25
2023-04-18T15:19:15.663Z,36.27
2023-04-18T15:20:15.715Z,36.20
2023-04-18T15:21:15.734Z,36.09
2023-04-18T15:22:16.750Z,36.12
2023-04-18T15:23:16.811Z,36.23
2023-04-18T15:24:16.178Z,36.78
2023-04-18T15:25:15.891Z,37.52
2023-04-18T15:26:16.890Z,37.69
2023-04-18T15:27:15.974Z,38.09
2023-04-18T15:28:16.016Z,38.40
2023-04-18T15:29:16.054Z,38.65
